»·PEaware :: N632CP KLAX-KSAN

N632CP :: KLAX-KSAN

FLIGHT INFORMATION

Flight Status: Arrived
Operator: Privately registered:
United States
More flights under this callsign
Pilot: William K. (19718)
Aircraft: CESSNA 172 SKYHAWK
(C172)
More flights by this aircraft type
Origin: KLAX Los Angeles Intl
United States
Destination: KSAN San Diego Intl-Lindbergh
United States
More flights between these airports :: More routes between these airports
Route:
File this flight plan on PilotEdge
Remarks: CAT-11
Altitude:
(Current/Filed)
7,500ft
Speed:
(Current/Filed)
115kts
Departed: 31-Jul-18 08:18 AM
Arrived: 31-Jul-18 10:07 AM
Distance/Time
Traveled:
95nm/1:49
Distance/Time
To Go:
Arrived

Flight Plot

Page will automatically refresh every two minutes.


Map Options




Map Legend


Flown Route
Filed Route
Departure Airport
Arrival Airport
Navaid (VOR, NDB)
Fix

Horizontal Profiles

Position Reports

Time Latitude Longitude Heading Altitude Ground
Speed
31-Jul-18 08:00 33.934136 -118.395574 175 129ft 0kts
31-Jul-18 08:01 33.934136 -118.395574 175 129ft 0kts
31-Jul-18 08:02 33.934136 -118.395574 175 129ft 0kts
31-Jul-18 08:03 33.934136 -118.395574 175 129ft 0kts
31-Jul-18 08:04 33.934136 -118.395574 175 129ft 0kts
31-Jul-18 08:05 33.934136 -118.395574 175 129ft 0kts
31-Jul-18 08:06 33.934136 -118.395574 175 129ft 0kts
31-Jul-18 08:07 33.934136 -118.395574 175 129ft 0kts
31-Jul-18 08:08 33.934136 -118.395574 175 129ft 0kts
31-Jul-18 08:09 33.934406 -118.394602 67 129ft 7kts
31-Jul-18 08:10 33.935309 -118.390797 83 129ft 12kts
31-Jul-18 08:11 33.935721 -118.386702 83 129ft 11kts
31-Jul-18 08:12 33.935985 -118.384109 82 129ft 5kts
31-Jul-18 08:13 33.936447 -118.382776 348 129ft 0kts
31-Jul-18 08:14 33.936447 -118.382776 348 129ft 0kts
31-Jul-18 08:15 33.936447 -118.382776 348 129ft 0kts
31-Jul-18 08:16 33.936447 -118.382776 348 129ft 0kts
31-Jul-18 08:17 33.936447 -118.382776 348 129ft 0kts
31-Jul-18 08:18 33.936447 -118.382776 348 129ft 0kts
31-Jul-18 08:19 33.936683 -118.389421 263 154ft 78kts
31-Jul-18 08:20 33.933520 -118.416619 263 1056ft 92kts
31-Jul-18 08:21 33.930357 -118.448582 263 1858ft 98kts
31-Jul-18 08:22 33.927235 -118.482198 264 2522ft 108kts
31-Jul-18 08:23 33.917090 -118.515284 190 2506ft 115kts
31-Jul-18 08:24 33.888437 -118.502715 150 2959ft 107kts
31-Jul-18 08:25 33.863256 -118.482502 146 3506ft 117kts
31-Jul-18 08:26 33.841004 -118.455868 106 3494ft 117kts
31-Jul-18 08:27 33.832594 -118.418062 105 3493ft 117kts
31-Jul-18 08:28 33.824303 -118.380189 105 3501ft 117kts
31-Jul-18 08:29 33.816421 -118.343137 105 4056ft 114kts
31-Jul-18 08:30 33.808929 -118.306667 104 4687ft 110kts
31-Jul-18 08:31 33.801947 -118.271523 104 5386ft 106kts
31-Jul-18 08:42 33.934136 -118.395574 175 129ft 0kts
31-Jul-18 08:43 33.934136 -118.395574 175 129ft 0kts
31-Jul-18 08:44 33.934136 -118.395574 175 129ft 0kts
31-Jul-18 08:45 33.934136 -118.395574 175 129ft 0kts
31-Jul-18 08:46 33.934136 -118.395574 175 129ft 0kts
31-Jul-18 08:47 33.934136 -118.395574 175 129ft 0kts
31-Jul-18 08:48 33.934136 -118.395574 175 129ft 0kts
31-Jul-18 08:49 33.934136 -118.395574 175 129ft 0kts
31-Jul-18 08:50 33.934136 -118.395574 175 129ft 0kts
31-Jul-18 08:51 33.934136 -118.395574 175 129ft 0kts
31-Jul-18 08:52 33.934136 -118.395574 175 129ft 0kts
31-Jul-18 08:53 33.934400 -118.395096 64 129ft 8kts
31-Jul-18 08:54 33.935544 -118.388482 83 129ft 27kts
31-Jul-18 08:55 33.936518 -118.382808 344 129ft 0kts
31-Jul-18 08:56 33.936518 -118.382808 344 129ft 0kts
31-Jul-18 08:57 33.936518 -118.382808 344 129ft 0kts
31-Jul-18 08:58 33.937206 -118.384142 267 129ft 22kts
31-Jul-18 08:59 33.935197 -118.409095 265 719ft 94kts
31-Jul-18 09:00 33.932936 -118.442365 265 1422ft 102kts
31-Jul-18 09:01 33.930775 -118.476679 265 2120ft 102kts
31-Jul-18 09:02 33.914367 -118.490550 136 2825ft 106kts
31-Jul-18 09:03 33.894983 -118.464065 133 3518ft 106kts
31-Jul-18 09:04 33.873590 -118.435042 134 3485ft 116kts
31-Jul-18 09:05 33.852199 -118.405855 134 3485ft 116kts
31-Jul-18 09:06 33.830845 -118.376507 134 3485ft 116kts
31-Jul-18 09:07 33.809564 -118.347027 134 3485ft 117kts
31-Jul-18 09:08 33.788991 -118.316795 123 3876ft 118kts
31-Jul-18 09:09 33.772849 -118.282591 122 4374ft 117kts
31-Jul-18 09:10 33.756397 -118.247459 122 4504ft 124kts
31-Jul-18 09:11 33.739344 -118.211354 122 4503ft 124kts
31-Jul-18 09:12 33.718351 -118.179472 132 4501ft 116kts
31-Jul-18 09:13 33.697163 -118.151984 140 4572ft 110kts
31-Jul-18 09:14 33.673940 -118.127611 143 5040ft 114kts
31-Jul-18 09:15 33.648182 -118.103052 145 5354ft 113kts
31-Jul-18 09:16 33.623352 -118.080805 146 5854ft 110kts
31-Jul-18 09:17 33.599647 -118.057965 142 6352ft 109kts
31-Jul-18 09:18 33.575583 -118.033730 142 6501ft 113kts
31-Jul-18 09:19 33.551978 -118.009954 142 6502ft 110kts
31-Jul-18 09:20 33.528729 -117.986359 135 6735ft 109kts
31-Jul-18 09:21 33.505657 -117.962845 136 7234ft 108kts
31-Jul-18 09:22 33.482472 -117.939349 137 7501ft 111kts
31-Jul-18 09:23 33.459088 -117.915810 137 7500ft 108kts
31-Jul-18 09:24 33.436107 -117.892585 137 7500ft 108kts
31-Jul-18 09:25 33.413200 -117.869427 136 7500ft 108kts
31-Jul-18 09:26 33.390173 -117.846159 136 7498ft 108kts
31-Jul-18 09:27 33.367063 -117.822747 142 7496ft 109kts
31-Jul-18 09:28 33.343792 -117.799328 143 7494ft 109kts
31-Jul-18 09:29 33.320611 -117.775974 143 7493ft 109kts
31-Jul-18 09:30 33.297555 -117.752747 143 7492ft 108kts
31-Jul-18 09:31 33.274574 -117.729607 143 7491ft 107kts
31-Jul-18 09:32 33.251739 -117.706628 143 7491ft 107kts
31-Jul-18 09:33 33.228854 -117.683615 143 7491ft 107kts
31-Jul-18 09:34 33.206036 -117.660687 143 7491ft 107kts
31-Jul-18 09:35 33.183117 -117.637674 143 7491ft 107kts
31-Jul-18 09:36 33.160245 -117.614724 143 7491ft 107kts
31-Jul-18 09:37 33.137388 -117.591805 143 7491ft 107kts
31-Jul-18 09:38 33.114424 -117.568794 143 7491ft 108kts
31-Jul-18 09:39 33.091477 -117.545689 142 7491ft 107kts
31-Jul-18 09:40 33.069163 -117.522916 142 7491ft 104kts
31-Jul-18 09:41 33.062688 -117.491031 84 7491ft 110kts
31-Jul-18 09:42 33.065194 -117.454854 90 7491ft 107kts
31-Jul-18 09:43 33.064976 -117.420509 82 7385ft 105kts
31-Jul-18 09:44 33.069057 -117.385886 78 6238ft 108kts
31-Jul-18 09:45 33.075533 -117.350166 75 4740ft 113kts
31-Jul-18 09:46 33.082448 -117.314822 76 3460ft 109kts
31-Jul-18 09:47 33.098762 -117.316439 262 3502ft 97kts
31-Jul-18 09:48 33.090971 -117.349918 254 3499ft 109kts
31-Jul-18 09:49 33.071374 -117.355127 100 3496ft 90kts
31-Jul-18 09:50 33.075574 -117.325865 78 3500ft 101kts
31-Jul-18 09:51 33.065140 -117.300131 143 3498ft 93kts
31-Jul-18 09:52 33.044086 -117.283186 149 3499ft 90kts
31-Jul-18 09:53 33.021952 -117.270202 160 3500ft 90kts
31-Jul-18 09:54 32.998226 -117.260761 160 3501ft 90kts
31-Jul-18 09:55 32.974512 -117.251306 160 3502ft 89kts
31-Jul-18 09:56 32.950547 -117.243507 168 3502ft 89kts
31-Jul-18 09:57 32.924907 -117.239119 175 3383ft 100kts
31-Jul-18 09:58 32.895829 -117.237605 179 2892ft 108kts
31-Jul-18 09:59 32.865602 -117.236445 179 2476ft 101kts
31-Jul-18 10:00 32.839037 -117.228906 157 2203ft 101kts
31-Jul-18 10:01 32.812857 -117.216517 164 2062ft 101kts
31-Jul-18 10:02 32.785920 -117.209899 168 1557ft 99kts
31-Jul-18 10:03 32.761576 -117.194948 112 939ft 106kts
31-Jul-18 10:04 32.755028 -117.164104 111 905ft 88kts
31-Jul-18 10:05 32.743314 -117.145469 188 838ft 70kts
31-Jul-18 10:06 32.728775 -117.155670 260 544ft 62kts
31-Jul-18 10:07 32.730080 -117.175280 283 214ft 58kts
31-Jul-18 10:08 32.732763 -117.188367 215 21ft 14kts
31-Jul-18 10:09 32.732446 -117.188567 219 21ft 0kts
31-Jul-18 10:10 32.732750 -117.190552 287 21ft 0kts

Navigation Log

Ident Type
Flight plan parsing failed, navigation log unavailable